Time;durP1;ratioP1;P1;durP2;ratioP2;P2;SDS_P1;SDS_P2;PMS_P1;PMS_P2;Temp;Humidity;BMP_temperature;BMP_pressure;BME280_temperature;BME280_humidity;BME280_pressure;Samples;Min_cycle;Max_cycle;Signal;HPM_P1;HPM_P2
2022/07/10 00:01:17;;;;;;;5.10;1.70;;;;;;;;;;5046528;28;20033;-77
2022/07/10 00:03:44;;;;;;;5.55;1.85;;;;;;;;;;5035684;28;20198;-78
2022/07/10 00:06:09;;;;;;;5.10;1.50;;;;;;;14.09;84.35;68333.94;5040976;28;20040;-78
2022/07/10 00:08:35;;;;;;;6.45;1.83;;;;;;;;;;5043317;28;20056;-79
2022/07/10 00:11:00;;;;;;;5.00;1.50;;;;;;;14.14;83.94;68345.00;5040101;28;20103;-78
2022/07/10 00:13:26;;;;;;;5.38;1.80;;;;;;;14.15;84.08;68338.09;5042541;28;20037;-80
2022/07/10 00:15:51;;;;;;;6.32;1.33;;;;;;;;;;5057136;28;20048;-79
2022/07/10 00:18:16;;;;;;;4.15;1.40;;;;;;;;;;5043371;28;20056;-77
2022/07/10 00:20:41;;;;;;;4.63;1.60;;;;;;;;;;5044064;28;20040;-77
2022/07/10 00:23:07;;;;;;;6.82;1.50;;;;;;;14.30;83.25;68362.06;5046095;28;20048;-78
2022/07/10 00:25:33;;;;;;;7.55;1.90;;;;;;;14.33;82.70;68360.16;5044703;28;20079;-78
2022/07/10 00:27:59;;;;;;;6.05;1.88;;;;;;;14.33;82.79;68365.50;5047271;28;20033;-80
2022/07/10 00:30:24;;;;;;;5.63;1.67;;;;;;;14.29;82.89;68356.16;5048795;28;20068;-77
2022/07/10 00:32:50;;;;;;;6.10;1.60;;;;;;;14.23;83.25;68349.88;5049135;28;20060;-78
2022/07/10 00:35:15;;;;;;;10.43;1.80;;;;;;;14.15;83.24;68340.78;5049251;28;20028;-80
2022/07/10 00:37:41;;;;;;;7.05;1.33;;;;;;;14.16;83.20;68346.72;5048168;28;20076;-79
2022/07/10 00:40:07;;;;;;;8.48;1.67;;;;;;;14.08;83.56;68332.81;5050170;28;20040;-80
2022/07/10 00:42:32;;;;;;;8.57;2.00;;;;;;;14.06;83.97;68329.97;5049226;28;20379;-79
2022/07/10 00:44:57;;;;;;;7.72;1.58;;;;;;;;;;5050057;28;20123;-78
2022/07/10 00:47:23;;;;;;;5.95;2.10;;;;;;;;;;5051575;28;20057;-80
2022/07/10 00:49:48;;;;;;;4.80;1.70;;;;;;;13.84;84.99;68311.44;5049236;28;20036;-79
2022/07/10 00:52:15;;;;;;;5.00;1.83;;;;;;;13.84;85.30;68310.84;5049141;28;20661;-77
2022/07/10 00:54:43;;;;;;;6.18;1.73;;;;;;;;;;5048624;28;20482;-78
2022/07/10 00:57:08;;;;;;;7.88;1.90;;;;;;;;;;5048717;28;20098;-79
2022/07/10 00:59:36;;;;;;;7.45;1.92;;;;;;;13.79;85.28;68305.19;5048823;28;20460;-79
2022/07/10 01:02:03;;;;;;;5.95;1.80;;;;;;;;;;5049636;28;20036;-78
2022/07/10 01:04:29;;;;;;;8.20;1.90;;;;;;;13.65;86.32;68290.38;5041850;28;20055;-79
2022/07/10 01:06:54;;;;;;;7.50;2.08;;;;;;;;;;5050793;28;20041;-79
2022/07/10 01:09:20;;;;;;;9.85;2.47;;;;;;;13.58;86.85;68282.44;5056787;28;20045;-78
2022/07/10 01:11:46;;;;;;;4.32;1.65;;;;;;;13.53;87.22;68271.97;5049860;28;20170;-78
2022/07/10 01:14:12;;;;;;;4.53;1.40;;;;;;;13.52;87.28;68275.59;5049338;28;20048;-79
2022/07/10 01:16:38;;;;;;;6.10;1.65;;;;;;;13.51;87.45;68274.47;5041428;28;20046;-78
2022/07/10 01:19:03;;;;;;;8.68;2.15;;;;;;;13.56;87.39;68279.59;5041755;28;20045;-79
2022/07/10 01:21:29;;;;;;;8.80;1.65;;;;;;;;;;5050721;28;20131;-79
2022/07/10 01:23:56;;;;;;;8.10;1.85;;;;;;;13.56;87.52;68274.81;5051459;28;20510;-78
2022/07/10 01:26:23;;;;;;;5.72;2.28;;;;;;;13.59;87.21;68278.22;5053630;28;20040;-79
2022/07/10 01:28:49;;;;;;;6.82;1.90;;;;;;;;;;5052518;28;20044;-77
2022/07/10 01:31:15;;;;;;;6.93;2.20;;;;;;;13.52;87.52;68275.59;5050784;28;20036;-79
2022/07/10 01:33:41;;;;;;;5.15;1.92;;;;;;;13.59;87.42;68278.22;5052255;28;20102;-79
2022/07/10 01:36:07;;;;;;;9.95;2.78;;;;;;;13.62;87.36;68281.63;5068860;28;20200;-79
2022/07/10 01:38:32;;;;;;;6.57;1.60;;;;;;;;;;5049545;28;20037;-79
2022/07/10 01:40:58;;;;;;;5.55;1.88;;;;;;;13.54;87.22;68278.44;5052426;28;20468;-78
2022/07/10 01:43:23;;;;;;;5.05;1.50;;;;;;;13.54;87.42;68283.78;5052370;28;20047;-78
2022/07/10 01:45:48;;;;;;;8.65;2.20;;;;;;;13.58;87.37;68276.50;5050367;28;20037;-79
2022/07/10 01:48:14;;;;;;;6.90;2.10;;;;;;;13.50;87.56;68267.97;5050763;28;20036;-77
2022/07/10 01:50:39;;;;;;;6.43;1.90;;;;;;;13.49;87.71;68272.75;5049195;28;20474;-77
2022/07/10 01:53:05;;;;;;;6.03;2.00;;;;;;;13.53;87.69;68276.75;5049969;28;20428;-77
2022/07/10 01:55:31;;;;;;;6.70;2.13;;;;;;;13.48;87.59;68266.25;5049081;28;20167;-77
2022/07/10 01:57:57;;;;;;;5.13;2.10;;;;;;;13.47;87.65;68261.91;5049639;28;20037;-77
2022/07/10 02:00:23;;;;;;;7.20;1.50;;;;;;;13.44;87.84;68261.16;5048553;28;20063;-77
2022/07/10 02:04:40;;;;;;;6.03;2.20;;;;;;;;;;5048244;28;20041;-77
2022/07/10 02:05:35;;;;;;;5.72;1.98;;;;;;;13.35;88.37;68256.84;5040975;28;20045;-79
2022/07/10 02:08:00;;;;;;;4.53;2.08;;;;;;;;;;5051081;28;20386;-79
2022/07/10 02:10:25;;;;;;;5.35;1.90;;;;;;;;;;5051147;28;20124;-78
2022/07/10 02:12:51;;;;;;;7.63;2.30;;;;;;;13.31;88.82;68247.50;5052681;28;20044;-78
2022/07/10 02:15:16;;;;;;;5.95;1.60;;;;;;;13.22;89.37;68245.25;5058085;28;20045;-76
2022/07/10 02:17:42;;;;;;;4.60;1.83;;;;;;;13.28;89.22;68248.88;5051099;28;20513;-78
2022/07/10 02:20:10;;;;;;;5.35;1.88;;;;;;;13.22;89.63;68242.59;5052074;28;20041;-77
2022/07/10 02:22:36;;;;;;;8.75;1.88;;;;;;;;;;5046899;28;20090;-76
2022/07/10 02:25:01;;;;;;;9.68;2.22;;;;;;;;;;5048955;28;20045;-77
2022/07/10 02:27:26;;;;;;;7.53;2.17;;;;;;;;;;5049663;28;20114;-77
2022/07/10 02:29:52;;;;;;;8.98;2.50;;;;;;;13.24;89.47;68244.88;5047523;28;20045;-77
2022/07/10 02:32:18;;;;;;;6.07;2.05;;;;;;;13.15;90.05;68228.72;5043942;28;20041;-76
2022/07/10 02:34:44;;;;;;;6.40;2.13;;;;;;;13.18;89.92;68237.47;5047102;28;20040;-77
2022/07/10 02:37:09;;;;;;;8.63;2.80;;;;;;;13.22;89.96;68234.56;5049020;28;20524;-78
2022/07/10 02:39:35;;;;;;;7.15;2.38;;;;;;;13.12;90.25;68231.22;5047381;28;20502;-78
2022/07/10 02:42:00;;;;;;;6.88;2.40;;;;;;;13.13;90.14;68227.00;5046679;28;20041;-79
2022/07/10 02:44:25;;;;;;;8.48;2.45;;;;;;;13.07;90.40;68225.53;5048692;28;20048;-78
2022/07/10 02:46:51;;;;;;;9.63;2.80;;;;;;;13.00;90.82;68212.78;5047999;28;20522;-77
2022/07/10 02:49:16;;;;;;;5.90;1.70;;;;;;;12.96;90.89;68207.69;5049339;28;20114;-78
2022/07/10 02:51:41;;;;;;;6.55;2.28;;;;;;;12.91;91.17;68207.34;5045493;28;20190;-76
2022/07/10 02:54:07;;;;;;;8.98;2.65;;;;;;;12.90;91.78;68201.44;5049744;28;20036;-77
2022/07/10 02:56:33;;;;;;;8.77;2.13;;;;;;;12.94;91.41;68205.41;5048302;28;20676;-78
2022/07/10 02:58:59;;;;;;;7.85;2.75;;;;;;;;;;5047989;28;20053;-77
2022/07/10 03:01:24;;;;;;;9.38;2.05;;;;;;;12.82;91.97;68197.69;5047421;28;20045;-78
2022/07/10 03:03:50;;;;;;;6.78;2.35;;;;;;;12.74;92.82;68183.81;5049951;28;20033;-78
2022/07/10 03:06:15;;;;;;;7.13;2.40;;;;;;;12.72;92.62;68186.88;5047148;28;20056;-77
2022/07/10 03:08:41;;;;;;;6.45;2.40;;;;;;;12.63;93.25;68177.22;5046393;28;20028;-78
2022/07/10 03:11:07;;;;;;;7.80;2.10;;;;;;;12.58;93.38;68170.97;5044876;28;20041;-77
2022/07/10 03:13:32;;;;;;;6.97;2.50;;;;;;;;;;5045882;28;20599;-78
2022/07/10 03:15:57;;;;;;;5.10;2.33;;;;;;;;;;5039703;28;20108;-77
2022/07/10 03:18:23;;;;;;;10.35;2.15;;;;;;;12.57;93.64;68164.47;5045783;28;20126;-77
2022/07/10 03:20:48;;;;;;;6.88;2.38;;;;;;;12.52;93.52;68164.16;5045686;28;20068;-78
2022/07/10 03:23:14;;;;;;;6.93;2.97;;;;;;;12.47;93.81;68158.47;5045403;28;20117;-77
2022/07/10 03:25:39;;;;;;;8.18;2.80;;;;;;;;;;5046121;28;20048;-78
2022/07/10 03:28:04;;;;;;;8.77;2.97;;;;;;;;;;5041511;28;20387;-78
2022/07/10 03:30:29;;;;;;;9.57;2.75;;;;;;;;;;5046590;28;20117;-77
2022/07/10 03:32:55;;;;;;;6.32;2.33;;;;;;;12.46;93.54;68151.97;5044376;28;20045;-76
2022/07/10 03:35:20;;;;;;;5.50;2.47;;;;;;;12.40;93.82;68146.31;5047066;28;20045;-77
2022/07/10 03:37:46;;;;;;;7.65;2.38;;;;;;;12.44;93.62;68150.28;5043594;28;20051;-78
2022/07/10 03:40:11;;;;;;;6.57;2.38;;;;;;;12.40;93.89;68151.66;5046935;28;20045;-77
2022/07/10 03:42:36;;;;;;;7.47;2.33;;;;;;;12.37;93.78;68148.25;5044012;28;20044;-76
2022/07/10 03:45:02;;;;;;;10.05;2.47;;;;;;;;;;5046104;28;20485;-78
2022/07/10 03:47:27;;;;;;;6.68;2.38;;;;;;;;;;5045734;28;20493;-78
2022/07/10 03:49:53;;;;;;;7.93;2.13;;;;;;;12.39;93.42;68153.16;5045671;28;20045;-77
2022/07/10 03:52:18;;;;;;;6.70;1.92;;;;;;;12.45;93.06;68156.19;5044536;28;20309;-77
2022/07/10 03:54:43;;;;;;;8.50;2.75;;;;;;;;;;5045471;28;20037;-76
2022/07/10 03:59:52;;;;;;;7.63;2.40;;;;;;;12.38;93.43;68143.47;5042388;28;20088;-77
2022/07/10 04:02:17;;;;;;;5.75;2.10;;;;;;;12.44;93.28;68155.06;5045142;28;20529;-77
2022/07/10 04:04:43;;;;;;;10.25;2.45;;;;;;;;;;5046607;28;20044;-76
2022/07/10 04:07:08;;;;;;;9.25;2.50;;;;;;;;;;5049518;28;20493;-76
2022/07/10 04:09:33;;;;;;;8.30;2.45;;;;;;;;;;5049937;28;20120;-76
2022/07/10 04:11:59;;;;;;;7.82;2.95;;;;;;;12.34;93.84;68146.91;5048803;28;20128;-77
2022/07/10 04:14:24;;;;;;;10.43;2.58;;;;;;;12.39;93.63;68149.94;5049482;28;20111;-77
2022/07/10 04:16:49;;;;;;;7.90;2.50;;;;;;;;;;5066645;28;20495;-78
2022/07/10 04:19:15;;;;;;;5.97;2.45;;;;;;;12.34;94.14;68139.50;5048944;28;20053;-77
2022/07/10 04:21:41;;;;;;;5.40;2.03;;;;;;;12.40;94.10;68153.75;5047159;28;20053;-76
2022/07/10 04:24:06;;;;;;;6.78;2.28;;;;;;;;;;5047787;28;20049;-77
2022/07/10 04:26:31;;;;;;;7.28;2.30;;;;;;;12.47;93.61;68158.47;5049859;28;20056;-77
2022/07/10 04:28:56;;;;;;;6.05;2.42;;;;;;;;;;5048253;28;20081;-77
2022/07/10 04:31:22;;;;;;;7.97;2.40;;;;;;;12.52;93.61;68164.16;5048453;28;20037;-77
2022/07/10 04:33:48;;;;;;;7.55;2.55;;;;;;;;;;5047632;28;20287;-78
2022/07/10 04:36:13;;;;;;;5.25;1.80;;;;;;;12.64;93.45;68177.78;5046273;28;20045;-77
2022/07/10 04:38:38;;;;;;;7.10;2.28;;;;;;;;;;5046670;28;20044;-77
2022/07/10 04:41:04;;;;;;;8.43;2.30;;;;;;;12.70;93.42;68184.59;5048853;28;20486;-77
2022/07/10 04:43:30;;;;;;;10.60;2.60;;;;;;;;;;5048511;28;20029;-78
2022/07/10 04:45:55;;;;;;;6.97;2.00;;;;;;;12.85;92.78;68201.66;5048519;28;20128;-77
2022/07/10 04:48:21;;;;;;;8.02;1.92;;;;;;;;;;5047703;28;20720;-77
2022/07/10 04:50:46;;;;;;;7.13;1.85;;;;;;;13.08;92.09;68226.66;5045393;28;20098;-77
2022/07/10 04:53:12;;;;;;;5.90;1.88;;;;;;;13.12;91.40;68233.91;5047692;28;20127;-77
2022/07/10 04:55:37;;;;;;;6.85;2.13;;;;;;;;;;5047656;28;20413;-78
2022/07/10 04:58:03;;;;;;;6.28;1.83;;;;;;;13.18;91.00;68232.69;5049739;28;20037;-77
2022/07/10 05:00:28;;;;;;;7.65;2.72;;;;;;;13.17;91.33;68236.91;5049371;28;20127;-78
2022/07/10 05:02:53;;;;;;;7.43;1.80;;;;;;;13.19;91.15;68239.19;5048580;28;20049;-77
2022/07/10 05:05:19;;;;;;;5.07;1.52;;;;;;;13.23;90.81;68243.72;5048569;28;20133;-77
2022/07/10 05:07:45;;;;;;;9.18;2.17;;;;;;;;;;5048104;28;20119;-79
2022/07/10 05:10:11;;;;;;;7.43;2.42;;;;;;;13.22;90.93;68242.03;5047069;28;20044;-78
2022/07/10 05:12:36;;;;;;;7.57;1.98;;;;;;;13.27;90.86;68242.38;5047736;28;20045;-77
2022/07/10 05:15:02;;;;;;;7.72;2.05;;;;;;;13.24;91.08;68244.88;5046612;28;20041;-76
2022/07/10 05:17:31;;;;;;;6.25;2.30;;;;;;;;;;5049446;28;20653;-78
2022/07/10 05:19:57;;;;;;;7.53;2.30;;;;;;;;;;5047605;28;20118;-77
2022/07/10 05:22:23;;;;;;;8.93;2.38;;;;;;;13.34;91.18;68255.69;5048377;28;20666;-77
2022/07/10 05:24:48;;;;;;;9.15;1.92;;;;;;;13.31;91.02;68254.94;5047073;28;20029;-76
2022/07/10 05:27:13;;;;;;;7.30;2.17;;;;;;;;;;5048832;28;20541;-78
2022/07/10 05:29:39;;;;;;;6.70;2.20;;;;;;;13.36;90.72;68252.63;5047038;28;20044;-78
2022/07/10 05:32:04;;;;;;;7.93;2.55;;;;;;;13.31;91.31;68252.84;5047779;28;20041;-77
2022/07/10 05:34:30;;;;;;;6.68;2.67;;;;;;;13.37;90.68;68253.75;5046334;28;20041;-78
2022/07/10 05:36:56;;;;;;;5.10;2.45;;;;;;;;;;5047839;28;20067;-77
2022/07/10 05:39:21;;;;;;;11.40;2.40;;;;;;;13.40;90.91;68261.94;5048062;28;20045;-77
2022/07/10 05:41:47;;;;;;;6.03;1.88;;;;;;;;;;5046908;28;20047;-77
2022/07/10 05:44:12;;;;;;;5.90;2.03;;;;;;;;;;5047029;28;20049;-77
2022/07/10 05:46:38;;;;;;;5.18;2.17;;;;;;;;;;5046934;28;20193;-77
2022/07/10 05:49:03;;;;;;;5.90;2.00;;;;;;;;;;5047447;28;20507;-78
2022/07/10 05:51:28;;;;;;;6.78;1.88;;;;;;;13.53;90.11;68271.38;5048916;28;20048;-77
2022/07/10 05:53:54;;;;;;;6.70;1.80;;;;;;;13.59;89.97;68278.22;5058538;28;20048;-78
2022/07/10 05:56:19;;;;;;;5.25;1.60;;;;;;;13.56;89.75;68274.81;5069056;28;20490;-78
2022/07/10 05:58:44;;;;;;;6.70;1.98;;;;;;;13.63;89.75;68287.53;5051192;28;20063;-77
2022/07/10 06:01:10;;;;;;;6.60;2.00;;;;;;;13.62;89.72;68286.97;5046308;28;20520;-77
2022/07/10 06:03:35;;;;;;;6.28;2.15;;;;;;;;;;5047998;28;20094;-76
2022/07/10 06:06:01;;;;;;;7.97;2.00;;;;;;;13.67;89.39;68292.66;5045005;28;20520;-77
2022/07/10 06:08:26;;;;;;;8.73;1.90;;;;;;;13.73;89.22;68299.50;5048037;28;20763;-77
2022/07/10 06:10:51;;;;;;;10.07;1.80;;;;;;;;;;5043693;28;20041;-77
2022/07/10 06:13:17;;;;;;;8.25;2.13;;;;;;;13.70;89.04;68296.06;5042903;28;20041;-76
2022/07/10 06:15:42;;;;;;;9.52;2.40;;;;;;;;;;5044681;28;20047;-77
2022/07/10 06:18:08;;;;;;;10.55;2.28;;;;;;;13.76;90.71;68297.56;5046347;28;20901;-77
2022/07/10 06:20:33;;;;;;;11.20;2.67;;;;;;;;;;5045214;28;20037;-77
2022/07/10 06:22:58;;;;;;;7.70;2.50;;;;;;;13.61;93.99;68285.25;5046376;28;20409;-78
2022/07/10 06:25:24;;;;;;;8.90;2.70;;;;;;;13.58;95.21;68281.84;5043034;28;20057;-76
2022/07/10 06:27:49;;;;;;;11.05;2.53;;;;;;;;;;5046621;28;20041;-77
2022/07/10 06:30:15;;;;;;;10.95;2.97;;;;;;;13.49;97.36;68267.41;5046422;28;20045;-77
2022/07/10 06:32:41;;;;;;;8.98;2.90;;;;;;;13.40;98.41;68257.16;5043767;28;20124;-77
2022/07/10 06:35:07;;;;;;;6.03;2.53;;;;;;;13.44;99.03;68266.50;5045538;28;20061;-77
2022/07/10 06:37:33;;;;;;;8.65;3.10;;;;;;;13.37;99.03;68253.19;5045574;28;20060;-77
2022/07/10 06:39:58;;;;;;;8.35;2.75;;;;;;;;;;5043780;28;21919;-76
2022/07/10 06:42:23;;;;;;;7.47;2.63;;;;;;;;;;5043087;28;20056;-76
2022/07/10 06:44:49;;;;;;;5.93;2.57;;;;;;;13.57;98.54;68275.94;5044426;28;20463;-78
2022/07/10 06:50:05;;;;;;;8.05;2.50;;;;;;;13.79;97.36;68305.75;5044435;28;20052;-77
2022/07/10 06:52:36;;;;;;;;;;;;;;;13.85;96.76;68312.00;5034942;28;20045;-77
2022/07/10 06:55:03;;;;;;;8.93;2.72;;;;;;;13.83;95.85;68302.25;5038913;28;19925;-77
2022/07/10 06:57:29;;;;;;;7.80;2.33;;;;;;;13.92;95.51;68311.94;5036736;28;20486;-77
2022/07/10 06:59:54;;;;;;;9.05;2.30;;;;;;;;;;5037986;28;20079;-77
2022/07/10 07:02:19;;;;;;;7.95;2.45;;;;;;;;;;5040068;28;20037;-77
2022/07/10 07:04:45;;;;;;;8.55;2.42;;;;;;;;;;5036717;28;20050;-78
2022/07/10 07:07:11;;;;;;;7.97;2.40;;;;;;;;;;5048038;28;20044;-77
2022/07/10 07:09:36;;;;;;;7.15;1.88;;;;;;;14.17;95.17;68347.84;5045237;28;20041;-77
2022/07/10 07:12:03;;;;;;;10.00;2.20;;;;;;;14.25;94.61;68348.94;5061161;28;20052;-77
2022/07/10 07:14:29;;;;;;;6.93;2.20;;;;;;;14.25;94.90;68351.03;5047880;28;20116;-77
2022/07/10 07:16:58;;;;;;;6.97;2.00;;;;;;;;;;5044537;28;20109;-77
2022/07/10 07:24:53;;;;;;;12.48;2.50;;;;;;;14.36;95.11;68361.44;5051571;28;20055;-77
2022/07/10 07:27:19;;;;;;;5.40;1.92;;;;;;;14.35;94.66;68360.28;5046375;28;20037;-77
2022/07/10 07:29:44;;;;;;;7.25;2.13;;;;;;;;;;5048487;28;20048;-77
2022/07/10 07:32:09;;;;;;;8.68;2.42;;;;;;;;;;5046065;28;20041;-77
2022/07/10 07:34:35;;;;;;;4.73;2.03;;;;;;;14.47;94.96;68376.06;5042827;28;20057;-77
2022/07/10 07:37:00;;;;;;;8.52;2.45;;;;;;;;;;5045940;28;20277;-77
2022/07/10 07:39:25;;;;;;;8.23;1.90;;;;;;;14.61;94.80;68392.03;5050463;28;20386;-77
2022/07/10 07:41:51;;;;;;;9.68;2.25;;;;;;;14.63;95.05;68391.63;5048038;28;20147;-77
2022/07/10 07:44:17;;;;;;;7.32;2.20;;;;;;;14.64;94.25;68394.88;5047420;28;20056;-79
2022/07/10 07:46:43;;;;;;;10.60;2.42;;;;;;;14.64;94.03;68392.78;5041977;28;20052;-79
2022/07/10 07:49:09;;;;;;;4.43;1.65;;;;;;;14.69;93.69;68400.56;5065532;28;20044;-78
2022/07/10 07:51:34;;;;;;;5.10;2.08;;;;;;;14.63;93.71;68399.09;5050538;28;20041;-77
2022/07/10 07:53:59;;;;;;;8.32;2.10;;;;;;;14.64;93.66;68392.78;5049027;28;20663;-77
2022/07/10 07:56:25;;;;;;;4.95;1.52;;;;;;;;;;5053711;28;20053;-79
2022/07/10 07:58:50;;;;;;;8.32;2.00;;;;;;;;;;5053722;28;20059;-78
2022/07/10 08:01:15;;;;;;;8.40;2.10;;;;;;;14.60;96.79;68396.25;5051676;28;20041;-79
2022/07/10 08:03:41;;;;;;;6.22;2.83;;;;;;;;;;5052192;28;20314;-79
2022/07/10 08:06:07;;;;;;;4.82;1.92;;;;;;;14.75;99.12;68407.41;5048318;28;20409;-80
2022/07/10 08:08:33;;;;;;;7.18;2.10;;;;;;;;;;5050975;28;20029;-80
2022/07/10 08:10:58;;;;;;;5.65;2.20;;;;;;;;;;5047843;28;20044;-77
2022/07/10 08:13:23;;;;;;;6.63;2.10;;;;;;;14.79;98.82;68416.75;5049578;28;20151;-76
2022/07/10 08:15:49;;;;;;;6.45;2.40;;;;;;;14.78;98.60;68416.16;5047892;28;20298;-78
2022/07/10 08:18:14;;;;;;;8.40;2.63;;;;;;;;;;5050559;28;20041;-79
2022/07/10 08:20:40;;;;;;;7.60;2.13;;;;;;;14.81;98.18;68414.22;5048828;28;20655;-78
2022/07/10 08:23:05;;;;;;;9.50;2.42;;;;;;;14.79;98.15;68416.75;5035591;28;20048;-79
2022/07/10 08:25:32;;;;;;;7.78;2.60;;;;;;;14.81;99.42;68414.22;5047636;28;20090;-79
2022/07/10 08:28:01;;;;;;;8.15;2.63;;;;;;;;;;5049647;28;20525;-79
2022/07/10 08:30:29;;;;;;;5.13;2.42;;;;;;;14.81;100.00;68410.97;5043612;28;20056;-78
2022/07/10 08:32:56;;;;;;;7.07;2.60;;;;;;;14.71;100.00;68402.84;5050505;28;20049;-78
2022/07/10 08:35:21;;;;;;;7.75;2.60;;;;;;;14.76;100.00;68405.28;5050955;28;20041;-78
2022/07/10 08:37:46;;;;;;;6.93;2.65;;;;;;;14.62;100.00;68390.50;5049756;28;20051;-76
2022/07/10 08:40:13;;;;;;;4.65;2.15;;;;;;;;;;5048536;28;20049;-77
2022/07/10 08:42:40;;;;;;;7.65;2.00;;;;;;;14.65;100.00;68396.03;5048548;28;20053;-78
2022/07/10 08:45:06;;;;;;;3.72;1.80;;;;;;;;;;5050893;28;20045;-78
2022/07/10 08:47:33;;;;;;;5.30;1.98;;;;;;;;;;5049638;28;20071;-78
2022/07/10 08:49:59;;;;;;;5.47;1.90;;;;;;;14.64;100.00;68394.88;5050040;28;20067;-79
2022/07/10 08:52:42;;;;;;;4.35;1.80;;;;;;;14.79;100.00;68409.28;5053777;28;20040;-78
2022/07/10 08:55:07;;;;;;;4.55;2.17;;;;;;;;;;5048486;28;20037;-77
2022/07/10 08:57:34;;;;;;;5.32;2.17;;;;;;;15.01;100.00;68441.78;5044765;28;20375;-79
2022/07/10 08:59:59;;;;;;;6.63;2.30;;;;;;;15.10;100.00;68444.03;5047732;28;20099;-78
2022/07/10 09:02:25;;;;;;;4.75;2.25;;;;;;;;;;5049346;28;20583;-76
2022/07/10 09:04:50;;;;;;;5.22;2.08;;;;;;;15.34;100.00;68470.22;5046331;28;20668;-79
2022/07/10 09:07:17;;;;;;;6.10;2.40;;;;;;;15.41;100.00;68477.59;5065879;28;20040;-77
2022/07/10 09:09:56;;;;;;;5.45;2.20;;;;;;;15.54;100.00;68495.66;5041870;28;20514;-77
2022/07/10 09:12:22;;;;;;;4.35;2.00;;;;;;;;;;5038883;28;20042;-79
2022/07/10 09:14:47;;;;;;;5.97;1.88;;;;;;;;;;5043873;28;20072;-77
2022/07/10 09:17:13;;;;;;;5.60;2.03;;;;;;;15.76;100.00;68519.59;5050057;28;20045;-78
2022/07/10 09:19:39;;;;;;;4.85;2.00;;;;;;;15.76;99.11;68519.59;5047930;28;20172;-78
2022/07/10 09:22:08;;;;;;;6.30;1.80;;;;;;;;;;5046124;28;20098;-78
2022/07/10 09:24:44;;;;;;;7.07;2.28;;;;;;;15.70;98.51;68512.78;5048436;28;20037;-79
2022/07/10 09:27:10;;;;;;;5.97;2.25;;;;;;;;;;5036282;28;20595;-77
2022/07/10 09:29:54;;;;;;;4.82;2.22;;;;;;;15.67;98.46;68514.69;5044599;28;20064;-77
2022/07/10 09:32:21;;;;;;;8.65;2.60;;;;;;;15.67;99.98;68509.34;5042066;28;20513;-78
2022/07/10 09:34:47;;;;;;;5.28;2.15;;;;;;;;;;5050147;28;20041;-78
2022/07/10 09:37:19;;;;;;;7.30;2.60;;;;;;;;;;5049121;28;20044;-78
2022/07/10 09:39:59;;;;;;;4.60;2.25;;;;;;;15.53;100.00;68499.31;5049949;28;20077;-79
2022/07/10 09:42:37;;;;;;;4.45;2.35;;;;;;;15.37;100.00;68475.75;5046591;28;20061;-77
2022/07/10 09:45:18;;;;;;;6.32;3.22;;;;;;;;;;5041539;28;20049;-83
2022/07/10 09:47:57;;;;;;;7.60;3.78;;;;;;;15.06;100.00;68441.56;5045969;28;20071;-77
2022/07/10 09:50:25;;;;;;;9.05;4.15;;;;;;;15.06;100.00;68447.50;5043698;28;20033;-76
2022/07/10 09:52:58;;;;;;;9.07;5.05;;;;;;;15.04;100.00;68445.22;5042060;28;20071;-76
2022/07/10 09:55:32;;;;;;;9.88;5.32;;;;;;;15.12;100.00;68453.75;5036240;28;20055;-76
2022/07/10 09:58:00;;;;;;;7.90;4.60;;;;;;;15.17;100.00;68459.47;5038575;28;20057;-78
2022/07/10 10:00:33;;;;;;;10.25;4.60;;;;;;;15.30;100.00;68468.88;5042602;28;20053;-78
2022/07/10 10:03:00;;;;;;;8.13;4.60;;;;;;;;;;5036151;28;20068;-79
2022/07/10 10:05:31;;;;;;;4.78;3.47;;;;;;;15.55;100.00;68496.81;5035994;28;20071;-79
2022/07/10 10:08:01;;;;;;;6.35;2.65;;;;;;;15.54;100.00;68495.66;5033098;28;20038;-78
2022/07/10 10:10:36;;;;;;;6.38;3.28;;;;;;;15.57;100.00;68499.09;5038350;28;20510;-78
2022/07/10 10:13:03;;;;;;;3.72;2.22;;;;;;;15.88;100.00;68527.34;5039879;28;20036;-78
2022/07/10 10:15:30;;;;;;;4.28;2.33;;;;;;;15.88;100.00;68533.31;5041657;28;20056;-78
2022/07/10 10:17:58;;;;;;;4.80;2.38;;;;;;;15.87;100.00;68531.59;5041805;28;20037;-79
2022/07/10 10:20:38;;;;;;;4.77;2.10;;;;;;;;;;5035807;28;20037;-79
2022/07/10 10:23:10;;;;;;;3.75;1.60;;;;;;;16.08;100.00;68554.94;5039856;28;20283;-78
2022/07/10 10:25:36;;;;;;;5.32;1.65;;;;;;;;;;5036605;28;20068;-79
2022/07/10 10:28:04;;;;;;;3.72;1.63;;;;;;;;;;5036098;28;20033;-78
2022/07/10 10:30:30;;;;;;;2.90;1.20;;;;;;;16.19;100.00;68568.03;5031818;28;20125;-78
2022/07/10 10:32:55;;;;;;;3.75;1.40;;;;;;;16.18;100.00;68564.22;5040466;28;20120;-78
2022/07/10 10:35:51;;;;;;;2.80;1.30;;;;;;;16.25;100.00;68574.31;5052253;28;20067;-78
2022/07/10 10:38:16;;;;;;;2.88;1.30;;;;;;;;;;5039931;28;20559;-78
2022/07/10 10:40:42;;;;;;;3.67;1.60;;;;;;;16.63;100.00;68621.88;5048548;28;20147;-78
2022/07/10 10:43:19;;;;;;;2.53;1.33;;;;;;;;;;5051334;28;20037;-79
2022/07/10 10:45:44;;;;;;;4.40;1.58;;;;;;;;;;5051865;28;20044;-79
2022/07/10 10:48:15;;;;;;;2.95;1.50;;;;;;;16.59;100.00;68617.88;5051531;28;20049;-79
2022/07/10 10:50:42;;;;;;;3.58;1.58;;;;;;;16.60;99.45;68613.06;5052435;28;20151;-79
2022/07/10 10:53:14;;;;;;;3.92;1.60;;;;;;;16.58;100.00;68611.38;5050940;28;20076;-79
2022/07/10 10:55:41;;;;;;;3.42;1.65;;;;;;;16.48;100.00;68594.59;5052034;28;20033;-79
2022/07/10 10:58:17;;;;;;;4.93;1.88;;;;;;;;;;5044607;28;20111;-78
2022/07/10 11:00:43;;;;;;;2.22;1.40;;;;;;;16.28;100.00;68577.72;5037028;28;20042;-80
2022/07/10 11:03:17;;;;;;;4.78;1.63;;;;;;;16.22;100.00;68568.22;5035257;28;20048;-79
2022/07/10 11:05:43;;;;;;;3.28;1.55;;;;;;;;;;5049584;28;20051;-78
2022/07/10 11:08:10;;;;;;;3.85;2.05;;;;;;;;;;5034131;28;20113;-80
2022/07/10 11:10:35;;;;;;;6.28;2.17;;;;;;;16.39;100.00;68590.28;5033131;28;20173;-80
2022/07/10 11:13:14;;;;;;;3.28;2.10;;;;;;;16.46;100.00;68597.69;5033880;28;20061;-78
2022/07/10 11:15:43;;;;;;;6.72;3.22;;;;;;;16.39;100.00;68590.28;5035372;28;20041;-79
2022/07/10 11:18:15;;;;;;;;;;;;;;;16.31;100.00;68580.59;5034027;28;20278;-77
2022/07/10 11:20:42;;;;;;;5.78;2.88;;;;;;;;;;5049417;28;19928;-79
2022/07/10 11:23:17;;;;;;;8.27;3.80;;;;;;;16.14;100.00;68562.38;5049482;28;20045;-78
2022/07/10 11:26:07;;;;;;;9.23;3.47;;;;;;;;;;5052667;28;20072;-80
2022/07/10 11:28:47;;;;;;;6.55;2.70;;;;;;;;;;5030120;28;20132;-77
2022/07/10 11:31:13;;;;;;;5.97;3.40;;;;;;;16.19;100.00;68568.03;5067989;28;20068;-78
2022/07/10 11:33:42;;;;;;;4.13;3.10;;;;;;;16.24;100.00;68573.19;5042644;28;20134;-79
2022/07/10 11:36:16;;;;;;;6.45;3.00;;;;;;;16.24;100.00;68571.06;5046986;28;20402;-80
2022/07/10 11:38:43;;;;;;;5.65;3.00;;;;;;;16.20;100.00;68565.94;5042660;28;20057;-78
2022/07/10 11:41:21;;;;;;;8.48;3.83;;;;;;;16.19;100.00;68573.41;5041751;28;20068;-78
2022/07/10 11:43:55;;;;;;;8.30;4.25;;;;;;;;;;5040780;28;20048;-78
2022/07/10 11:46:24;;;;;;;6.10;4.00;;;;;;;16.00;100.00;68546.97;5052023;28;20072;-78
2022/07/10 11:48:52;;;;;;;7.18;3.90;;;;;;;15.90;100.00;68529.63;5044135;28;20040;-76
2022/07/10 11:51:18;;;;;;;8.45;4.30;;;;;;;;;;5043879;28;20040;-78
2022/07/10 11:53:58;;;;;;;9.50;4.30;;;;;;;;;;5046342;28;20048;-79
2022/07/10 11:56:23;;;;;;;;;;;;;;;15.93;100.00;68544.34;5056159;28;20863;-79
2022/07/10 11:58:56;;;;;;;6.90;4.55;;;;;;;15.90;100.00;68535.00;5045613;28;19920;-79
2022/07/10 12:01:22;;;;;;;6.88;4.32;;;;;;;;;;5042786;28;20036;-79
2022/07/10 12:04:04;;;;;;;6.13;5.00;;;;;;;15.76;100.00;68520.19;5044847;28;20044;-79
2022/07/10 12:06:32;;;;;;;8.23;5.00;;;;;;;15.78;100.00;68527.25;5048711;28;20037;-80
2022/07/10 12:09:10;;;;;;;6.25;4.45;;;;;;;15.85;100.00;68537.91;5045252;28;20030;-78
2022/07/10 12:11:36;;;;;;;8.73;5.05;;;;;;;15.94;100.00;68537.44;5046677;28;20410;-78
2022/07/10 12:14:20;;;;;;;7.53;4.13;;;;;;;15.97;100.00;68543.56;5048637;28;20106;-77
2022/07/10 12:16:48;;;;;;;5.22;3.72;;;;;;;16.06;100.00;68553.25;5038863;28;20635;-77
2022/07/10 12:19:19;;;;;;;8.48;4.43;;;;;;;16.13;100.00;68560.63;5045151;28;20069;-76
2022/07/10 12:21:46;;;;;;;6.25;3.83;;;;;;;16.25;100.00;68571.63;5045601;28;20155;-78
2022/07/10 12:24:12;;;;;;;7.93;3.97;;;;;;;;;;5050860;28;20040;-77
2022/07/10 12:26:39;;;;;;;4.78;3.38;;;;;;;;;;5051594;28;20033;-77
2022/07/10 12:29:05;;;;;;;6.20;3.85;;;;;;;16.58;100.00;68611.38;5051388;28;20055;-78
2022/07/10 12:31:33;;;;;;;6.97;3.80;;;;;;;16.84;100.00;68640.47;5054667;28;20041;-78
2022/07/10 12:34:05;;;;;;;5.15;3.33;;;;;;;17.16;100.00;68675.81;5052203;28;20045;-78
2022/07/10 12:36:43;;;;;;;7.32;3.90;;;;;;;17.28;100.00;68688.94;5055117;28;20044;-78